createdAt,value
2023-03-19T00:00:46.555Z,10.00
2023-03-19T00:03:13.964Z,10.00
2023-03-19T00:05:41.339Z,10.00
2023-03-19T00:08:09.106Z,10.10
2023-03-19T00:10:40.324Z,10.10
2023-03-19T00:13:29.713Z,10.10
2023-03-19T00:15:59.364Z,10.10
2023-03-19T00:18:40.260Z,10.10
2023-03-19T00:21:07.786Z,10.10
2023-03-19T00:23:36.851Z,10.00
2023-03-19T00:26:04.738Z,10.00
2023-03-19T00:28:32.016Z,10.00
2023-03-19T00:31:07.052Z,10.00
2023-03-19T00:33:34.359Z,9.90
2023-03-19T00:36:01.685Z,9.70
2023-03-19T00:38:29.676Z,9.60
2023-03-19T00:40:57.231Z,9.70
2023-03-19T00:43:25.211Z,9.70
2023-03-19T00:45:52.414Z,9.80
2023-03-19T00:48:19.840Z,9.80
2023-03-19T00:50:47.689Z,9.80
2023-03-19T00:53:15.287Z,9.80
2023-03-19T00:55:43.097Z,9.80
2023-03-19T00:58:10.663Z,9.80
2023-03-19T01:00:40.621Z,9.80
2023-03-19T01:03:08.376Z,9.90
2023-03-19T01:08:03.923Z,9.90
2023-03-19T01:10:33.396Z,10.00
2023-03-19T01:13:01.070Z,10.00
2023-03-19T01:15:28.610Z,10.00
2023-03-19T01:17:56.524Z,10.00
2023-03-19T01:20:24.388Z,10.00
2023-03-19T01:22:51.780Z,10.00
2023-03-19T01:25:19.147Z,10.10
2023-03-19T01:27:46.957Z,10.10
2023-03-19T01:30:15.156Z,10.10
2023-03-19T01:32:42.483Z,10.10
2023-03-19T01:35:10.150Z,10.10
2023-03-19T01:37:37.824Z,10.10
2023-03-19T01:40:06.370Z,10.00
2023-03-19T01:42:34.482Z,10.00
2023-03-19T01:45:04.202Z,9.90
2023-03-19T01:47:36.235Z,9.90
2023-03-19T01:50:05.295Z,9.80
2023-03-19T01:52:35.179Z,9.80
2023-03-19T01:55:07.685Z,9.80
2023-03-19T01:57:36.258Z,9.90
2023-03-19T02:00:08.900Z,9.90
2023-03-19T02:02:39.044Z,9.90
2023-03-19T02:05:15.802Z,9.90
2023-03-19T02:07:46.329Z,10.00
2023-03-19T02:10:16.764Z,10.00
2023-03-19T02:12:44.131Z,9.90
2023-03-19T02:15:12.076Z,9.90
2023-03-19T02:17:41.258Z,9.80
2023-03-19T02:20:16.430Z,9.80
2023-03-19T02:22:52.437Z,9.80
2023-03-19T02:25:36.612Z,9.80
2023-03-19T02:28:04.351Z,9.90
2023-03-19T02:30:34.336Z,9.90
2023-03-19T02:33:01.822Z,9.90
2023-03-19T02:35:33.415Z,9.90
2023-03-19T02:38:03.728Z,10.00
2023-03-19T02:40:36.636Z,10.00
2023-03-19T02:43:04.600Z,10.00
2023-03-19T02:45:32.580Z,10.00
2023-03-19T02:48:00.408Z,10.00
2023-03-19T02:50:28.049Z,10.00
2023-03-19T02:52:55.529Z,10.00
2023-03-19T02:55:22.836Z,10.00
2023-03-19T02:57:50.114Z,10.00
2023-03-19T03:00:19.024Z,10.00
2023-03-19T03:02:46.320Z,9.90
2023-03-19T03:05:14.715Z,9.90
2023-03-19T03:07:43.818Z,9.90
2023-03-19T03:10:12.122Z,9.90
2023-03-19T03:12:39.477Z,9.90
2023-03-19T03:15:08.977Z,9.80
2023-03-19T03:17:44.044Z,9.80
2023-03-19T03:20:13.479Z,9.80
2023-03-19T03:22:41.736Z,9.80
2023-03-19T03:25:10.720Z,9.80
2023-03-19T03:27:39.398Z,9.80
2023-03-19T03:30:09.236Z,9.80
2023-03-19T03:32:38.522Z,9.80
2023-03-19T03:35:06.758Z,9.80
2023-03-19T03:37:34.271Z,9.80
2023-03-19T03:40:07.079Z,9.80
2023-03-19T03:42:36.538Z,9.70
2023-03-19T03:45:06.547Z,9.70
2023-03-19T03:47:33.991Z,9.70
2023-03-19T03:50:01.502Z,9.70
2023-03-19T03:52:31.655Z,9.60
2023-03-19T03:54:59.217Z,9.60
2023-03-19T03:57:27.876Z,9.60
2023-03-19T03:59:55.517Z,9.60
2023-03-19T04:02:23.307Z,9.50
2023-03-19T04:04:50.315Z,9.50
2023-03-19T04:07:17.510Z,9.50
2023-03-19T04:09:46.444Z,9.40
2023-03-19T04:12:14.499Z,9.40
2023-03-19T04:14:42.012Z,9.40
2023-03-19T04:17:09.247Z,9.30
2023-03-19T04:19:36.635Z,9.30
2023-03-19T04:22:03.890Z,9.30
2023-03-19T04:24:31.222Z,9.20
2023-03-19T04:26:58.582Z,9.20
2023-03-19T04:29:26.671Z,9.20
2023-03-19T04:31:54.149Z,9.20
2023-03-19T04:34:21.352Z,9.20
2023-03-19T04:36:49.280Z,9.10
2023-03-19T04:39:16.649Z,9.10
2023-03-19T04:41:44.273Z,9.10
2023-03-19T04:44:12.216Z,9.10
2023-03-19T04:46:39.806Z,9.10
2023-03-19T04:49:07.254Z,9.00
2023-03-19T04:51:34.744Z,9.00
2023-03-19T04:54:02.257Z,9.00
2023-03-19T04:56:29.748Z,9.00
2023-03-19T04:58:57.197Z,9.00
2023-03-19T05:01:24.804Z,8.90
2023-03-19T05:03:54.501Z,8.90
2023-03-19T05:06:21.724Z,8.90
2023-03-19T05:08:48.884Z,8.80
2023-03-19T05:11:16.935Z,8.80
2023-03-19T05:13:44.142Z,8.80
2023-03-19T05:16:11.784Z,8.80
2023-03-19T05:18:41.251Z,8.70
2023-03-19T05:21:12.388Z,8.70
2023-03-19T05:23:40.273Z,8.70
2023-03-19T05:26:08.736Z,8.70
2023-03-19T05:28:36.161Z,8.70
2023-03-19T05:31:05.372Z,8.70
2023-03-19T05:33:32.661Z,8.60
2023-03-19T05:36:00.041Z,8.60
2023-03-19T05:38:27.448Z,8.60
2023-03-19T05:40:54.686Z,8.60
2023-03-19T05:43:22.029Z,8.60
2023-03-19T05:45:53.107Z,8.60
2023-03-19T05:48:20.693Z,8.60
2023-03-19T05:50:48.498Z,8.60
2023-03-19T05:53:15.712Z,8.60
2023-03-19T05:55:44.974Z,8.60
2023-03-19T05:58:12.608Z,8.60
2023-03-19T06:00:39.814Z,8.60
2023-03-19T06:03:07.980Z,8.60
2023-03-19T06:05:35.760Z,8.60
2023-03-19T06:08:03.242Z,8.70
2023-03-19T06:10:30.753Z,8.70
2023-03-19T06:12:58.131Z,8.70
2023-03-19T06:15:25.578Z,8.70
2023-03-19T06:17:52.792Z,8.80
2023-03-19T06:20:20.115Z,8.90
2023-03-19T06:22:47.479Z,9.00
2023-03-19T06:25:14.898Z,9.10
2023-03-19T06:27:43.010Z,9.20
2023-03-19T06:30:10.847Z,9.30
2023-03-19T06:32:38.828Z,9.40
2023-03-19T06:35:06.784Z,9.50
2023-03-19T06:37:34.015Z,9.60
2023-03-19T06:40:01.546Z,9.70
2023-03-19T06:42:29.354Z,9.80
2023-03-19T06:44:56.738Z,9.90
2023-03-19T06:47:24.068Z,10.00
2023-03-19T06:49:51.674Z,10.00
2023-03-19T06:52:19.118Z,10.10
2023-03-19T06:54:46.313Z,10.10
2023-03-19T06:57:15.125Z,10.10
2023-03-19T06:59:42.492Z,10.20
2023-03-19T07:02:12.330Z,10.20
2023-03-19T07:04:40.648Z,10.30
2023-03-19T07:07:08.099Z,10.40
2023-03-19T07:09:35.229Z,10.50
2023-03-19T07:12:02.581Z,10.60
2023-03-19T07:14:29.900Z,10.60
2023-03-19T07:16:57.404Z,10.70
2023-03-19T07:19:24.654Z,10.80
2023-03-19T07:21:51.859Z,10.90
2023-03-19T07:24:19.078Z,11.00
2023-03-19T07:26:46.644Z,11.10
2023-03-19T07:29:15.225Z,11.10
2023-03-19T07:31:44.895Z,11.30
2023-03-19T07:34:14.039Z,11.40
2023-03-19T07:36:41.464Z,11.50
2023-03-19T07:39:09.202Z,11.60
2023-03-19T07:41:36.380Z,11.80
2023-03-19T07:44:03.778Z,11.80
2023-03-19T07:46:32.107Z,12.00
2023-03-19T07:48:59.568Z,12.10
2023-03-19T07:51:26.966Z,12.10
2023-03-19T07:56:33.807Z,12.20
2023-03-19T07:59:01.057Z,12.30
2023-03-19T08:01:28.536Z,12.40
2023-03-19T08:03:56.207Z,12.40
2023-03-19T08:06:24.144Z,12.50
2023-03-19T08:08:51.683Z,12.50
2023-03-19T08:11:19.959Z,12.50
2023-03-19T08:13:47.386Z,12.60
2023-03-19T08:16:14.731Z,12.60
2023-03-19T08:18:42.829Z,12.60
2023-03-19T08:21:10.016Z,12.70
2023-03-19T08:23:38.860Z,12.70
2023-03-19T08:26:06.749Z,12.70
2023-03-19T08:28:34.237Z,12.70
2023-03-19T08:31:11.519Z,12.80
2023-03-19T08:33:39.724Z,12.90
2023-03-19T08:36:12.623Z,13.00
2023-03-19T08:38:42.329Z,13.00
2023-03-19T08:41:12.706Z,13.10
2023-03-19T08:43:43.090Z,13.20
2023-03-19T08:46:10.716Z,13.30
2023-03-19T08:48:40.939Z,13.40
2023-03-19T08:51:10.944Z,13.50
2023-03-19T08:53:39.133Z,13.50
2023-03-19T08:56:11.265Z,13.60
2023-03-19T08:58:38.558Z,13.80
2023-03-19T09:01:12.961Z,14.10
2023-03-19T09:03:42.545Z,14.30
2023-03-19T09:06:14.744Z,14.50
2023-03-19T09:08:42.549Z,14.80
2023-03-19T09:11:11.262Z,15.00
2023-03-19T09:13:39.769Z,15.30
2023-03-19T09:16:07.110Z,15.50
2023-03-19T09:18:35.896Z,15.60
2023-03-19T09:21:04.148Z,15.70
2023-03-19T09:23:31.702Z,15.60
2023-03-19T09:26:00.076Z,15.70
2023-03-19T09:28:27.522Z,15.70
2023-03-19T09:30:54.917Z,15.70
2023-03-19T09:33:23.654Z,15.70
2023-03-19T09:35:58.793Z,15.70
2023-03-19T09:38:26.152Z,15.70
2023-03-19T09:41:07.407Z,15.60
2023-03-19T09:43:43.386Z,15.60
2023-03-19T09:46:22.517Z,15.60
2023-03-19T09:49:09.609Z,15.60
2023-03-19T09:51:47.889Z,15.60
2023-03-19T09:54:30.275Z,15.50
2023-03-19T09:56:57.861Z,15.50
2023-03-19T09:59:27.827Z,15.50
2023-03-19T10:02:00.290Z,15.50
2023-03-19T10:04:49.176Z,15.50
2023-03-19T10:07:26.831Z,15.50
2023-03-19T10:10:13.460Z,15.40
2023-03-19T10:13:06.975Z,15.40
2023-03-19T10:15:38.005Z,15.40
2023-03-19T10:18:17.618Z,15.40
2023-03-19T10:21:20.534Z,15.50
2023-03-19T10:24:31.684Z,15.50
2023-03-19T10:27:03.117Z,15.50
2023-03-19T10:29:30.988Z,15.50
2023-03-19T10:32:39.461Z,15.50
2023-03-19T10:35:28.161Z,15.50
2023-03-19T10:37:56.171Z,15.50
2023-03-19T10:40:34.841Z,15.60
2023-03-19T10:43:17.224Z,15.60
2023-03-19T10:45:50.273Z,15.60
2023-03-19T10:48:22.373Z,15.60
2023-03-19T10:51:01.693Z,15.70
2023-03-19T10:53:36.064Z,15.70
2023-03-19T10:56:25.525Z,15.70
2023-03-19T10:59:06.060Z,15.80
2023-03-19T11:01:42.438Z,15.80
2023-03-19T11:04:22.495Z,15.90
2023-03-19T11:07:02.380Z,15.90
2023-03-19T11:09:41.784Z,15.90
2023-03-19T11:12:19.767Z,16.00
2023-03-19T11:14:50.377Z,16.00
2023-03-19T11:17:17.801Z,16.10
2023-03-19T11:19:52.872Z,16.10
2023-03-19T11:22:28.914Z,16.20
2023-03-19T11:25:19.243Z,16.20
2023-03-19T11:28:02.408Z,16.30
2023-03-19T11:30:56.168Z,16.40
2023-03-19T11:33:42.881Z,16.40
2023-03-19T11:36:32.775Z,16.40
2023-03-19T11:39:31.228Z,16.40
2023-03-19T11:42:07.880Z,16.40
2023-03-19T11:44:44.553Z,16.40
2023-03-19T11:47:43.939Z,16.40
2023-03-19T11:50:24.983Z,16.50
2023-03-19T11:53:04.680Z,16.50
2023-03-19T11:55:39.507Z,16.50
2023-03-19T11:58:36.665Z,16.50
2023-03-19T12:01:23.320Z,16.50
2023-03-19T12:04:17.768Z,16.50
2023-03-19T12:07:21.084Z,16.40
2023-03-19T12:10:03.532Z,16.40
2023-03-19T12:12:54.192Z,16.40
2023-03-19T12:15:27.806Z,16.40
2023-03-19T12:18:32.761Z,16.50
2023-03-19T12:21:05.590Z,16.50
2023-03-19T12:23:44.873Z,16.60
2023-03-19T12:26:35.701Z,16.70
2023-03-19T12:30:13.779Z,16.70
2023-03-19T12:33:12.032Z,16.80
2023-03-19T12:35:42.304Z,16.80
2023-03-19T12:39:01.403Z,16.90
2023-03-19T12:41:29.918Z,16.90
2023-03-19T12:44:22.230Z,17.00
2023-03-19T12:46:59.304Z,17.00
2023-03-19T12:49:52.641Z,17.00
2023-03-19T12:52:35.168Z,17.10
2023-03-19T12:55:40.063Z,17.10
2023-03-19T12:58:12.978Z,17.20
2023-03-19T13:01:02.588Z,17.20
2023-03-19T13:03:54.809Z,17.30
2023-03-19T13:07:06.386Z,17.40
2023-03-19T13:09:39.001Z,17.50
2023-03-19T13:12:14.618Z,17.60
2023-03-19T13:15:13.019Z,17.70
2023-03-19T13:18:13.555Z,17.80
2023-03-19T13:21:02.727Z,17.80
2023-03-19T13:23:37.489Z,17.80
2023-03-19T13:26:08.263Z,17.70
2023-03-19T13:28:38.288Z,17.70
2023-03-19T13:31:20.996Z,17.70
2023-03-19T13:34:18.681Z,17.60
2023-03-19T13:37:01.724Z,17.60
2023-03-19T13:39:33.149Z,17.60
2023-03-19T13:42:29.464Z,17.60
2023-03-19T13:45:05.461Z,17.60
2023-03-19T13:47:33.015Z,17.50
2023-03-19T13:50:11.346Z,17.50
2023-03-19T13:52:45.205Z,17.60
2023-03-19T13:55:34.626Z,17.50
2023-03-19T13:58:17.919Z,17.50
2023-03-19T14:00:45.447Z,17.50
2023-03-19T14:03:24.483Z,17.40
2023-03-19T14:05:54.729Z,17.40
2023-03-19T14:08:34.758Z,17.30
2023-03-19T14:11:06.731Z,17.30
2023-03-19T14:13:49.154Z,17.10
2023-03-19T14:16:25.019Z,17.00
2023-03-19T14:18:58.914Z,16.80
2023-03-19T14:21:47.029Z,16.70
2023-03-19T14:24:56.772Z,16.60
2023-03-19T14:27:18.618Z,16.50
2023-03-19T14:29:47.708Z,16.50
2023-03-19T14:32:21.949Z,16.40
2023-03-19T14:34:50.619Z,16.30
2023-03-19T14:37:37.679Z,16.20
2023-03-19T14:40:17.883Z,16.10
2023-03-19T14:46:43.463Z,15.80
2023-03-19T14:49:11.896Z,15.80
2023-03-19T14:52:14.774Z,15.70
2023-03-19T14:54:55.868Z,15.60
2023-03-19T14:57:28.682Z,15.60
2023-03-19T14:59:57.786Z,15.60
2023-03-19T15:02:48.182Z,15.50
2023-03-19T15:05:25.725Z,15.50
2023-03-19T15:07:58.743Z,15.40
2023-03-19T15:10:29.865Z,15.30
2023-03-19T15:13:21.651Z,15.10
2023-03-19T15:15:55.262Z,14.80
2023-03-19T15:18:23.762Z,14.60
2023-03-19T15:20:55.347Z,14.40
2023-03-19T15:23:28.328Z,14.30
2023-03-19T15:25:58.342Z,14.30
2023-03-19T15:28:28.344Z,14.30
2023-03-19T15:31:05.705Z,14.30
2023-03-19T15:33:42.731Z,14.20
2023-03-19T15:36:22.396Z,14.20
2023-03-19T15:38:57.497Z,14.20
2023-03-19T15:41:26.594Z,14.30
2023-03-19T15:43:55.013Z,14.30
2023-03-19T15:46:27.111Z,14.30
2023-03-19T15:49:05.818Z,14.30
2023-03-19T15:51:33.894Z,14.40
2023-03-19T15:54:02.738Z,14.40
2023-03-19T15:56:32.633Z,14.50
2023-03-19T15:59:01.298Z,14.50
2023-03-19T16:01:31.465Z,14.60
2023-03-19T16:04:06.275Z,14.60
2023-03-19T16:06:39.680Z,14.70
2023-03-19T16:09:26.793Z,14.70
2023-03-19T16:11:56.109Z,14.80
2023-03-19T16:14:52.863Z,14.80
2023-03-19T16:17:20.788Z,14.90
2023-03-19T16:19:52.530Z,14.90
2023-03-19T16:22:33.366Z,14.90
2023-03-19T16:25:02.714Z,14.90
2023-03-19T16:27:37.425Z,14.90
2023-03-19T16:30:14.250Z,15.00
2023-03-19T16:32:42.847Z,14.90
2023-03-19T16:35:21.674Z,14.90
2023-03-19T16:38:10.323Z,14.90
2023-03-19T16:40:43.888Z,14.90
2023-03-19T16:43:23.105Z,14.80
2023-03-19T16:45:52.785Z,14.70
2023-03-19T16:48:20.080Z,14.70
2023-03-19T16:50:47.750Z,14.70
2023-03-19T16:53:27.356Z,14.60
2023-03-19T16:55:56.816Z,14.60
2023-03-19T16:58:44.618Z,14.60
2023-03-19T17:01:20.769Z,14.60
2023-03-19T17:03:49.753Z,14.50
2023-03-19T17:06:18.087Z,14.50
2023-03-19T17:08:48.490Z,14.50
2023-03-19T17:11:30.365Z,14.50
2023-03-19T17:13:59.458Z,14.40
2023-03-19T17:16:28.594Z,14.40
2023-03-19T17:18:57.583Z,14.40
2023-03-19T17:21:36.541Z,14.30
2023-03-19T17:24:24.195Z,14.30
2023-03-19T17:26:52.614Z,14.30
2023-03-19T17:29:23.274Z,14.20
2023-03-19T17:31:50.856Z,14.20
2023-03-19T17:34:22.172Z,14.10
2023-03-19T17:36:56.344Z,14.10
2023-03-19T17:39:25.088Z,14.10
2023-03-19T17:41:54.309Z,14.00
2023-03-19T17:44:21.598Z,14.00
2023-03-19T17:46:52.290Z,13.90
2023-03-19T17:49:29.301Z,13.90
2023-03-19T17:51:57.204Z,13.90
2023-03-19T17:54:27.092Z,13.80
2023-03-19T17:56:55.597Z,13.80
2023-03-19T17:59:23.402Z,13.70
2023-03-19T18:01:51.124Z,13.70
2023-03-19T18:04:20.737Z,13.60
2023-03-19T18:06:57.242Z,13.60
2023-03-19T18:09:28.667Z,13.50
2023-03-19T18:11:56.251Z,13.50
2023-03-19T18:14:23.527Z,13.40
2023-03-19T18:16:51.165Z,13.30
2023-03-19T18:19:30.506Z,13.30
2023-03-19T18:21:58.074Z,13.20
2023-03-19T18:24:26.451Z,13.10
2023-03-19T18:26:53.698Z,13.10
2023-03-19T18:29:21.249Z,13.00
2023-03-19T18:31:53.371Z,13.00
2023-03-19T18:34:21.014Z,12.90
2023-03-19T18:36:48.519Z,12.80
2023-03-19T18:39:16.839Z,12.70
2023-03-19T18:41:44.192Z,12.70
2023-03-19T18:44:12.723Z,12.70
2023-03-19T18:46:40.991Z,12.60
2023-03-19T18:49:23.109Z,12.60
2023-03-19T18:52:02.063Z,12.50
2023-03-19T18:54:31.700Z,12.40
2023-03-19T18:57:02.850Z,12.30
2023-03-19T18:59:33.338Z,12.30
2023-03-19T19:02:04.585Z,12.20
2023-03-19T19:04:32.166Z,12.20
2023-03-19T19:07:02.417Z,12.10
2023-03-19T19:09:29.978Z,12.00
2023-03-19T19:12:00.708Z,12.00
2023-03-19T19:14:28.749Z,11.90
2023-03-19T19:16:57.228Z,11.90
2023-03-19T19:19:27.979Z,11.90
2023-03-19T19:21:55.209Z,11.80
2023-03-19T19:24:22.588Z,11.80
2023-03-19T19:26:54.379Z,11.80
2023-03-19T19:29:25.498Z,11.70
2023-03-19T19:31:54.225Z,11.70
2023-03-19T19:34:22.699Z,11.70
2023-03-19T19:36:51.633Z,11.60
2023-03-19T19:39:19.274Z,11.50
2023-03-19T19:41:46.892Z,11.50
2023-03-19T19:44:22.548Z,11.40
2023-03-19T19:46:53.511Z,11.40
2023-03-19T19:49:21.996Z,11.30
2023-03-19T19:51:49.110Z,11.30
2023-03-19T19:54:16.395Z,11.20
2023-03-19T19:56:43.750Z,11.10
2023-03-19T19:59:15.139Z,11.10
2023-03-19T20:01:42.702Z,11.00
2023-03-19T20:04:14.375Z,11.00
2023-03-19T20:06:41.912Z,10.90
2023-03-19T20:09:09.254Z,10.80
2023-03-19T20:11:36.806Z,10.80
2023-03-19T20:14:04.043Z,10.70
2023-03-19T20:16:31.444Z,10.70
2023-03-19T20:18:58.736Z,10.60
2023-03-19T20:21:26.461Z,10.60
2023-03-19T20:23:55.722Z,10.60
2023-03-19T20:26:25.208Z,10.50
2023-03-19T20:28:53.468Z,10.50
2023-03-19T20:31:26.946Z,10.40
2023-03-19T20:33:54.621Z,10.40
2023-03-19T20:36:22.125Z,10.40
2023-03-19T20:38:49.622Z,10.30
2023-03-19T20:41:23.054Z,10.30
2023-03-19T20:43:52.336Z,10.20
2023-03-19T20:46:22.015Z,10.10
2023-03-19T20:48:49.649Z,10.10
2023-03-19T20:51:21.766Z,10.10
2023-03-19T20:53:51.607Z,10.10
2023-03-19T20:56:24.785Z,10.00
2023-03-19T20:58:55.106Z,10.00
2023-03-19T21:01:22.742Z,10.00
2023-03-19T21:03:50.170Z,10.00
2023-03-19T21:06:21.404Z,9.90
2023-03-19T21:08:55.302Z,9.90
2023-03-19T21:11:24.318Z,9.90
2023-03-19T21:16:29.396Z,9.80
2023-03-19T21:18:57.669Z,9.80
2023-03-19T21:21:32.757Z,9.70
2023-03-19T21:24:05.639Z,9.70
2023-03-19T21:26:37.636Z,9.70
2023-03-19T21:29:09.275Z,9.70
2023-03-19T21:31:36.575Z,9.70
2023-03-19T21:34:03.942Z,9.60
2023-03-19T21:36:31.595Z,9.60
2023-03-19T21:38:58.889Z,9.60
2023-03-19T21:41:33.538Z,9.60
2023-03-19T21:44:04.579Z,9.60
2023-03-19T21:46:33.115Z,9.50
2023-03-19T21:49:00.665Z,9.50
2023-03-19T21:51:30.391Z,9.50
2023-03-19T21:53:58.703Z,9.50
2023-03-19T21:56:34.132Z,9.50
2023-03-19T21:59:04.485Z,9.50
2023-03-19T22:01:31.888Z,9.40
2023-03-19T22:03:59.209Z,9.40
2023-03-19T22:06:26.850Z,9.40
2023-03-19T22:08:54.987Z,9.40
2023-03-19T22:11:34.872Z,9.30
2023-03-19T22:14:10.183Z,9.30
2023-03-19T22:16:37.423Z,9.30
2023-03-19T22:19:05.444Z,9.20
2023-03-19T22:21:34.229Z,9.20
2023-03-19T22:24:01.579Z,9.20
2023-03-19T22:26:35.031Z,9.20
2023-03-19T22:29:11.418Z,9.20
2023-03-19T22:31:39.177Z,9.20
2023-03-19T22:34:07.034Z,9.20
2023-03-19T22:36:34.321Z,9.20
2023-03-19T22:39:01.546Z,9.20
2023-03-19T22:41:34.587Z,9.20
2023-03-19T22:44:05.609Z,9.20
2023-03-19T22:46:33.590Z,9.20
2023-03-19T22:49:01.883Z,9.10
2023-03-19T22:51:29.353Z,9.10
2023-03-19T22:53:57.149Z,9.00
2023-03-19T22:56:24.479Z,9.00
2023-03-19T22:58:52.710Z,8.90
2023-03-19T23:01:41.094Z,8.90
2023-03-19T23:04:28.199Z,8.90
2023-03-19T23:06:57.222Z,9.00
2023-03-19T23:09:31.146Z,9.00
2023-03-19T23:11:59.723Z,9.00
2023-03-19T23:14:30.550Z,9.00
2023-03-19T23:17:03.884Z,9.10
2023-03-19T23:19:33.955Z,9.10
2023-03-19T23:22:03.598Z,9.00
2023-03-19T23:24:31.433Z,9.00
2023-03-19T23:27:00.293Z,9.00
2023-03-19T23:29:31.395Z,9.10
2023-03-19T23:32:02.028Z,9.10
2023-03-19T23:34:29.313Z,9.10
2023-03-19T23:36:58.208Z,9.10
2023-03-19T23:39:25.927Z,9.10
2023-03-19T23:41:57.222Z,9.10
2023-03-19T23:44:24.768Z,9.10
2023-03-19T23:46:52.726Z,9.10
2023-03-19T23:49:32.656Z,9.10
2023-03-19T23:52:02.125Z,9.10
2023-03-19T23:54:32.454Z,9.10
2023-03-19T23:57:03.319Z,9.10
2023-03-19T23:59:35.818Z,9.20
